Terminal Aerodrome Forecast
Issued by NWS

Home | Current Version | Previous Version | Text Only | Print | Product List | Glossary On
Versions: 1 2 3 4 5 6 7 8 9 10 11 12 13 14 15 16 17 18 19 20 21
699
FTUS43 KUNR 212056 AAA
TAFGCC
TAF AMD
KGCC 212056Z 2121/2218 15025G35KT P6SM BKN080
     FM212200 16020G30KT P6SM VCTS BKN050CB
      TEMPO 2122/2202 -TSRA
     FM220300 19010KT P6SM OVC030=

USA.gov is the U.S. government's official web portal to all federal, state and local government web resources and services.